createdAt,value
2023-05-22T00:00:27.895Z,37.92
2023-05-22T00:01:27.924Z,37.95
2023-05-22T00:02:28.013Z,37.95
2023-05-22T00:03:28.001Z,37.98
2023-05-22T00:04:28.481Z,37.95
2023-05-22T00:05:28.032Z,37.98
2023-05-22T00:06:28.071Z,37.92
2023-05-22T00:07:28.009Z,37.96
2023-05-22T00:08:29.605Z,37.94
2023-05-22T00:09:28.039Z,37.96
2023-05-22T00:10:28.058Z,37.92
2023-05-22T00:11:28.062Z,37.95
2023-05-22T00:12:28.083Z,37.98
2023-05-22T00:13:28.151Z,37.95
2023-05-22T00:14:28.116Z,37.95
2023-05-22T00:15:28.143Z,37.93
2023-05-22T00:16:28.164Z,37.99
2023-05-22T00:17:28.208Z,37.96
2023-05-22T00:18:28.193Z,37.97
2023-05-22T00:19:28.222Z,37.96
2023-05-22T00:20:28.228Z,37.96
2023-05-22T00:21:28.234Z,37.94
2023-05-22T00:22:28.251Z,37.99
2023-05-22T00:23:28.268Z,37.95
2023-05-22T00:24:28.284Z,37.96
2023-05-22T00:25:28.306Z,37.96
2023-05-22T00:26:28.307Z,37.94
2023-05-22T00:27:28.335Z,38.00
2023-05-22T00:28:28.349Z,37.90
2023-05-22T00:29:28.376Z,37.99
2023-05-22T00:30:28.380Z,37.96
2023-05-22T00:31:28.427Z,37.95
2023-05-22T00:32:28.566Z,37.97
2023-05-22T00:33:28.417Z,37.95
2023-05-22T00:34:28.514Z,37.94
2023-05-22T00:35:28.437Z,37.96
2023-05-22T00:36:28.467Z,37.95
2023-05-22T00:37:28.464Z,37.98
2023-05-22T00:38:28.477Z,37.99
2023-05-22T00:39:28.497Z,37.95
2023-05-22T00:40:28.516Z,37.92
2023-05-22T00:41:28.520Z,37.94
2023-05-22T00:42:28.527Z,37.91
2023-05-22T00:43:28.531Z,37.94
2023-05-22T00:44:28.561Z,37.98
2023-05-22T00:45:28.550Z,37.94
2023-05-22T00:46:28.694Z,37.92
2023-05-22T00:47:28.609Z,37.93
2023-05-22T00:48:28.592Z,37.98
2023-05-22T00:49:28.590Z,37.98
2023-05-22T00:50:28.587Z,37.93
2023-05-22T00:51:28.632Z,37.93
2023-05-22T00:52:28.723Z,37.97
2023-05-22T00:53:28.602Z,37.92
2023-05-22T00:54:28.607Z,37.95
2023-05-22T00:55:28.995Z,37.93
2023-05-22T00:56:28.611Z,37.93
2023-05-22T00:57:28.629Z,37.93
2023-05-22T00:58:28.614Z,37.89
2023-05-22T00:59:28.625Z,37.92
2023-05-22T01:00:28.698Z,37.96
2023-05-22T01:01:28.641Z,37.93
2023-05-22T01:02:28.773Z,37.90
2023-05-22T01:03:28.766Z,37.90
2023-05-22T01:04:28.655Z,37.88
2023-05-22T01:05:28.656Z,37.87
2023-05-22T01:06:28.677Z,37.91
2023-05-22T01:07:28.661Z,37.90
2023-05-22T01:08:28.692Z,37.91
2023-05-22T01:09:28.671Z,37.85
2023-05-22T01:10:28.676Z,37.86
2023-05-22T01:11:28.686Z,37.89
2023-05-22T01:12:28.716Z,37.86
2023-05-22T01:13:28.754Z,37.87
2023-05-22T01:14:28.696Z,37.85
2023-05-22T01:15:28.700Z,37.89
2023-05-22T01:16:28.718Z,37.89
2023-05-22T01:17:28.792Z,37.86
2023-05-22T01:18:29.542Z,37.86
2023-05-22T01:19:28.848Z,37.86
2023-05-22T01:20:28.772Z,37.86
2023-05-22T01:21:28.710Z,37.85
2023-05-22T01:22:28.714Z,37.84
2023-05-22T01:23:28.716Z,37.82
2023-05-22T01:24:28.737Z,37.85
2023-05-22T01:25:28.712Z,37.85
2023-05-22T01:26:28.714Z,37.84
2023-05-22T01:27:28.729Z,37.84
2023-05-22T01:28:28.714Z,37.81
2023-05-22T01:29:28.712Z,37.86
2023-05-22T01:30:28.716Z,37.86
2023-05-22T01:31:28.716Z,37.82
2023-05-22T01:32:28.779Z,37.84
2023-05-22T01:33:28.869Z,37.81
2023-05-22T01:34:28.734Z,37.84
2023-05-22T01:35:28.730Z,37.84
2023-05-22T01:36:28.749Z,37.82
2023-05-22T01:37:28.747Z,37.89
2023-05-22T01:38:28.748Z,37.84
2023-05-22T01:39:28.821Z,37.84
2023-05-22T01:40:28.736Z,37.85
2023-05-22T01:41:28.758Z,37.86
2023-05-22T01:42:28.761Z,37.90
2023-05-22T01:43:28.779Z,37.84
2023-05-22T01:44:28.764Z,37.86
2023-05-22T01:45:28.815Z,37.85
2023-05-22T01:46:29.558Z,37.85
2023-05-22T01:47:28.825Z,37.82
2023-05-22T01:48:28.789Z,37.81
2023-05-22T01:49:28.788Z,37.81
2023-05-22T01:50:28.781Z,37.88
2023-05-22T01:51:28.782Z,37.86
2023-05-22T01:52:28.780Z,37.86
2023-05-22T01:53:28.803Z,37.85
2023-05-22T01:54:28.806Z,37.85
2023-05-22T01:55:28.811Z,37.86
2023-05-22T01:56:28.800Z,37.86
2023-05-22T01:57:28.805Z,37.86
2023-05-22T01:58:28.801Z,37.86
2023-05-22T01:59:28.818Z,37.89
2023-05-22T02:00:28.821Z,37.84
2023-05-22T02:01:28.923Z,37.86
2023-05-22T02:02:28.987Z,37.88
2023-05-22T02:03:28.943Z,37.85
2023-05-22T02:04:28.844Z,37.89
2023-05-22T02:05:28.828Z,37.86
2023-05-22T02:06:28.876Z,37.90
2023-05-22T02:07:28.852Z,37.91
2023-05-22T02:08:28.843Z,37.86
2023-05-22T02:09:28.869Z,37.92
2023-05-22T02:10:28.854Z,37.90
2023-05-22T02:11:28.852Z,37.91
2023-05-22T02:12:28.871Z,37.87
2023-05-22T02:13:28.867Z,37.90
2023-05-22T02:14:28.900Z,37.90
2023-05-22T02:15:28.938Z,37.88
2023-05-22T02:16:28.957Z,37.89
2023-05-22T02:17:29.023Z,37.89
2023-05-22T02:18:28.906Z,37.86
2023-05-22T02:19:28.954Z,37.90
2023-05-22T02:20:28.917Z,37.90
2023-05-22T02:21:29.553Z,37.89
2023-05-22T02:22:28.932Z,37.91
2023-05-22T02:23:28.936Z,37.86
2023-05-22T02:24:28.941Z,37.90
2023-05-22T02:25:28.974Z,37.92
2023-05-22T02:26:28.956Z,37.93
2023-05-22T02:27:28.958Z,37.93
2023-05-22T02:28:28.971Z,37.89
2023-05-22T02:29:29.526Z,37.94
2023-05-22T02:30:28.982Z,37.90
2023-05-22T02:31:29.043Z,37.91
2023-05-22T02:32:29.040Z,37.93
2023-05-22T02:33:29.962Z,37.92
2023-05-22T02:34:28.915Z,37.89
2023-05-22T02:35:28.883Z,37.96
2023-05-22T02:36:28.845Z,37.90
2023-05-22T02:37:28.803Z,37.92
2023-05-22T02:38:28.759Z,37.97
2023-05-22T02:39:28.726Z,37.90
2023-05-22T02:40:28.669Z,37.92
2023-05-22T02:41:28.638Z,37.93
2023-05-22T02:42:28.585Z,37.96
2023-05-22T02:43:28.556Z,37.93
2023-05-22T02:44:28.569Z,37.92
2023-05-22T02:45:28.582Z,37.95
2023-05-22T02:46:28.679Z,37.93
2023-05-22T02:47:28.627Z,37.93
2023-05-22T02:48:28.598Z,37.90
2023-05-22T02:49:28.608Z,37.95
2023-05-22T02:50:28.622Z,37.93
2023-05-22T02:51:28.677Z,37.93
2023-05-22T02:52:28.680Z,37.91
2023-05-22T02:53:28.733Z,37.91
2023-05-22T02:54:28.671Z,37.88
2023-05-22T02:55:28.690Z,37.93
2023-05-22T02:56:28.693Z,37.95
2023-05-22T02:57:28.701Z,37.97
2023-05-22T02:58:28.716Z,37.91
2023-05-22T02:59:28.706Z,37.95
2023-05-22T03:00:28.726Z,37.92
2023-05-22T03:01:28.748Z,37.95
2023-05-22T03:02:28.805Z,37.96
2023-05-22T03:03:28.822Z,37.95
2023-05-22T03:04:28.740Z,37.95
2023-05-22T03:05:28.736Z,37.94
2023-05-22T03:06:28.754Z,37.93
2023-05-22T03:07:28.762Z,37.92
2023-05-22T03:08:28.773Z,37.97
2023-05-22T03:09:28.830Z,37.95
2023-05-22T03:10:28.780Z,37.98
2023-05-22T03:11:28.898Z,37.92
2023-05-22T03:12:28.814Z,37.92
2023-05-22T03:13:28.815Z,37.97
2023-05-22T03:14:28.821Z,37.95
2023-05-22T03:15:28.853Z,37.95
2023-05-22T03:16:28.903Z,37.95
2023-05-22T03:17:28.884Z,37.93
2023-05-22T03:18:28.869Z,37.95
2023-05-22T03:19:28.957Z,37.93
2023-05-22T03:20:28.891Z,37.96
2023-05-22T03:21:28.896Z,37.93
2023-05-22T03:22:28.918Z,37.96
2023-05-22T03:23:28.899Z,37.96
2023-05-22T03:24:28.920Z,37.93
2023-05-22T03:25:28.931Z,37.97
2023-05-22T03:26:28.927Z,37.97
2023-05-22T03:27:28.938Z,37.98
2023-05-22T03:28:28.961Z,37.96
2023-05-22T03:29:29.553Z,37.95
2023-05-22T03:30:28.968Z,37.94
2023-05-22T03:31:28.975Z,37.95
2023-05-22T03:32:29.004Z,37.95
2023-05-22T03:33:29.025Z,37.91
2023-05-22T03:34:28.997Z,37.89
2023-05-22T03:35:29.020Z,37.93
2023-05-22T03:36:30.452Z,37.92
2023-05-22T03:37:28.980Z,37.92
2023-05-22T03:38:28.946Z,37.92
2023-05-22T03:39:28.960Z,37.92
2023-05-22T03:40:28.824Z,37.92
2023-05-22T03:41:28.849Z,37.91
2023-05-22T03:42:28.753Z,37.96
2023-05-22T03:43:28.706Z,37.89
2023-05-22T03:44:28.662Z,37.95
2023-05-22T03:45:28.627Z,37.95
2023-05-22T03:46:28.599Z,37.92
2023-05-22T03:47:28.527Z,37.92
2023-05-22T03:48:28.476Z,37.95
2023-05-22T03:49:28.481Z,37.91
2023-05-22T03:50:28.380Z,37.91
2023-05-22T03:51:28.398Z,37.91
2023-05-22T03:52:28.310Z,37.90
2023-05-22T03:53:28.253Z,37.91
2023-05-22T03:54:28.198Z,37.95
2023-05-22T03:55:28.153Z,37.91
2023-05-22T03:56:28.093Z,37.91
2023-05-22T03:57:29.051Z,37.87
2023-05-22T03:58:28.024Z,37.86
2023-05-22T03:59:28.069Z,37.86
2023-05-22T04:00:27.935Z,37.91
2023-05-22T04:01:27.880Z,37.87
2023-05-22T04:02:27.885Z,37.89
2023-05-22T04:03:27.896Z,37.90
2023-05-22T04:04:27.744Z,37.85
2023-05-22T04:05:28.607Z,37.84
2023-05-22T04:06:27.639Z,37.86
2023-05-22T04:07:27.660Z,37.84
2023-05-22T04:08:27.686Z,37.85
2023-05-22T04:09:27.507Z,37.86
2023-05-22T04:10:27.464Z,37.81
2023-05-22T04:11:27.428Z,37.80
2023-05-22T04:12:27.396Z,37.81
2023-05-22T04:13:27.383Z,37.80
2023-05-22T04:14:27.378Z,37.79
2023-05-22T04:15:27.269Z,37.79
2023-05-22T04:16:27.296Z,37.78
2023-05-22T04:17:27.230Z,37.78
2023-05-22T04:18:27.196Z,37.77
2023-05-22T04:19:27.186Z,37.78
2023-05-22T04:20:27.094Z,37.77
2023-05-22T04:21:27.051Z,37.72
2023-05-22T04:22:27.054Z,37.72
2023-05-22T04:23:26.993Z,37.72
2023-05-22T04:24:26.946Z,37.73
2023-05-22T04:25:26.912Z,37.75
2023-05-22T04:26:26.870Z,37.71
2023-05-22T04:27:26.829Z,37.67
2023-05-22T04:28:26.826Z,37.68
2023-05-22T04:29:26.907Z,37.72
2023-05-22T04:30:26.811Z,37.63
2023-05-22T04:31:26.923Z,37.69
2023-05-22T04:32:26.836Z,37.65
2023-05-22T04:33:26.816Z,37.61
2023-05-22T04:34:26.813Z,37.65
2023-05-22T04:35:26.806Z,37.65
2023-05-22T04:36:26.801Z,37.65
2023-05-22T04:37:26.888Z,37.64
2023-05-22T04:38:26.792Z,37.59
2023-05-22T04:39:26.781Z,37.60
2023-05-22T04:40:26.788Z,37.61
2023-05-22T04:41:26.888Z,37.60
2023-05-22T04:42:26.780Z,37.59
2023-05-22T04:43:26.812Z,37.60
2023-05-22T04:44:26.764Z,37.59
2023-05-22T04:45:26.748Z,37.59
2023-05-22T04:46:26.764Z,37.59
2023-05-22T04:47:26.896Z,37.59
2023-05-22T04:48:26.719Z,37.58
2023-05-22T04:49:26.719Z,37.60
2023-05-22T04:50:27.730Z,37.58
2023-05-22T04:51:28.582Z,37.58
2023-05-22T04:52:26.567Z,37.63
2023-05-22T04:53:26.552Z,37.57
2023-05-22T04:54:26.470Z,37.56
2023-05-22T04:55:26.436Z,37.57
2023-05-22T04:56:35.620Z,37.57
2023-05-22T04:57:27.342Z,37.56
2023-05-22T04:58:26.296Z,37.58
2023-05-22T04:59:26.296Z,37.57
2023-05-22T05:00:26.211Z,37.58
2023-05-22T05:01:26.251Z,37.53
2023-05-22T05:02:26.218Z,37.56
2023-05-22T05:03:26.098Z,37.54
2023-05-22T05:04:26.028Z,37.54
2023-05-22T05:05:25.987Z,37.58
2023-05-22T05:06:25.934Z,37.53
2023-05-22T05:07:25.897Z,37.54
2023-05-22T05:08:25.848Z,37.52
2023-05-22T05:09:25.792Z,37.50
2023-05-22T05:10:25.773Z,37.58
2023-05-22T05:11:25.709Z,37.51
2023-05-22T05:12:25.680Z,37.46
2023-05-22T05:13:25.681Z,37.45
2023-05-22T05:14:25.634Z,37.49
2023-05-22T05:15:25.626Z,37.41
2023-05-22T05:16:25.682Z,37.40
2023-05-22T05:17:25.606Z,37.32
2023-05-22T05:18:25.543Z,37.28
2023-05-22T05:19:25.574Z,37.19
2023-05-22T05:20:25.496Z,37.20
2023-05-22T05:21:25.417Z,37.10
2023-05-22T05:22:25.456Z,37.04
2023-05-22T05:23:25.352Z,37.09
2023-05-22T05:24:25.331Z,37.07
2023-05-22T05:25:25.248Z,37.05
2023-05-22T05:26:25.226Z,37.04
2023-05-22T05:27:25.181Z,37.05
2023-05-22T05:28:25.114Z,37.08
2023-05-22T05:29:25.071Z,37.08
2023-05-22T05:30:25.034Z,37.07
2023-05-22T05:31:25.032Z,37.55
2023-05-22T05:32:25.074Z,37.66
2023-05-22T05:33:24.933Z,37.83
2023-05-22T05:34:24.959Z,38.06
2023-05-22T05:35:24.842Z,38.41
2023-05-22T05:36:24.865Z,38.77
2023-05-22T05:37:24.831Z,39.01
2023-05-22T05:38:24.833Z,39.20
2023-05-22T05:39:24.902Z,39.34
2023-05-22T05:40:24.816Z,39.57
2023-05-22T05:41:24.804Z,39.85
2023-05-22T05:42:24.767Z,39.97
2023-05-22T05:43:24.734Z,40.29
2023-05-22T05:44:24.727Z,40.61
2023-05-22T05:45:24.655Z,40.62
2023-05-22T05:46:24.623Z,40.84
2023-05-22T05:47:24.672Z,40.89
2023-05-22T05:48:24.548Z,40.99
2023-05-22T05:49:24.437Z,41.13
2023-05-22T05:50:24.363Z,41.32
2023-05-22T05:51:24.309Z,41.39
2023-05-22T05:52:24.225Z,41.36
2023-05-22T05:53:24.152Z,41.64
2023-05-22T05:54:24.095Z,41.85
2023-05-22T05:55:24.115Z,41.86
2023-05-22T05:56:24.297Z,42.00
2023-05-22T05:57:24.036Z,42.16
2023-05-22T05:58:28.613Z,42.25
2023-05-22T05:59:23.953Z,42.45
2023-05-22T06:00:27.573Z,42.67
2023-05-22T06:01:23.769Z,42.89
2023-05-22T06:02:23.774Z,42.90
2023-05-22T06:03:23.670Z,43.00
2023-05-22T06:04:24.100Z,43.24
2023-05-22T06:05:23.594Z,43.29
2023-05-22T06:06:23.342Z,43.37
2023-05-22T06:07:23.263Z,43.49
2023-05-22T06:08:23.203Z,43.71
2023-05-22T06:09:23.206Z,43.80
2023-05-22T06:10:23.004Z,43.93
2023-05-22T06:11:22.929Z,44.25
2023-05-22T06:12:22.921Z,44.42
2023-05-22T06:13:22.746Z,44.69
2023-05-22T06:14:22.679Z,44.85
2023-05-22T06:15:22.638Z,44.99
2023-05-22T06:16:22.631Z,45.04
2023-05-22T06:17:22.784Z,45.14
2023-05-22T06:18:22.467Z,45.12
2023-05-22T06:19:22.423Z,45.32
2023-05-22T06:20:22.394Z,45.51
2023-05-22T06:21:23.208Z,45.75
2023-05-22T06:22:22.198Z,46.20
2023-05-22T06:23:21.935Z,46.16
2023-05-22T06:24:21.969Z,45.99
2023-05-22T06:25:21.796Z,45.93
2023-05-22T06:26:21.784Z,45.81
2023-05-22T06:27:21.624Z,45.64
2023-05-22T06:28:21.499Z,45.63
2023-05-22T06:29:21.412Z,45.62
2023-05-22T06:30:35.734Z,45.55
2023-05-22T06:31:22.249Z,45.56
2023-05-22T06:32:21.219Z,45.49
2023-05-22T06:33:21.141Z,45.44
2023-05-22T06:34:21.113Z,45.35
2023-05-22T06:35:20.936Z,45.34
2023-05-22T06:36:20.861Z,45.26
2023-05-22T06:37:20.799Z,45.20
2023-05-22T06:38:20.770Z,45.24
2023-05-22T06:39:20.619Z,45.16
2023-05-22T06:40:20.562Z,45.11
2023-05-22T06:41:20.470Z,45.02
2023-05-22T06:42:20.407Z,44.96
2023-05-22T06:43:20.376Z,44.87
2023-05-22T06:44:20.255Z,44.80
2023-05-22T06:45:20.237Z,44.79
2023-05-22T06:46:20.263Z,44.76
2023-05-22T06:47:20.112Z,44.67
2023-05-22T06:48:19.993Z,44.59
2023-05-22T06:49:19.909Z,44.51
2023-05-22T06:50:19.849Z,44.52
2023-05-22T06:51:20.792Z,44.50
2023-05-22T06:52:20.148Z,44.45
2023-05-22T06:53:19.642Z,44.40
2023-05-22T06:54:19.661Z,44.36
2023-05-22T06:55:19.534Z,44.31
2023-05-22T06:56:19.505Z,44.29
2023-05-22T06:57:19.360Z,44.23
2023-05-22T06:58:19.301Z,44.26
2023-05-22T06:59:19.219Z,44.24
2023-05-22T07:00:21.577Z,44.20
2023-05-22T07:01:19.387Z,44.11
2023-05-22T07:02:19.366Z,44.09
2023-05-22T07:03:19.257Z,44.12
2023-05-22T07:04:19.221Z,44.08
2023-05-22T07:05:19.277Z,44.06
2023-05-22T07:06:19.191Z,44.03
2023-05-22T07:07:19.102Z,43.97
2023-05-22T07:08:19.121Z,43.99
2023-05-22T07:09:19.040Z,43.97
2023-05-22T07:10:18.993Z,43.96
2023-05-22T07:11:19.128Z,43.89
2023-05-22T07:12:18.935Z,43.87
2023-05-22T07:13:18.902Z,43.90
2023-05-22T07:14:18.885Z,43.84
2023-05-22T07:15:18.845Z,43.82
2023-05-22T07:16:18.849Z,43.81
2023-05-22T07:17:18.784Z,43.79
2023-05-22T07:18:18.753Z,43.77
2023-05-22T07:19:18.778Z,43.72
2023-05-22T07:20:18.727Z,43.73
2023-05-22T07:21:18.767Z,43.71
2023-05-22T07:22:18.656Z,43.72
2023-05-22T07:23:18.760Z,43.72
2023-05-22T07:24:18.606Z,43.66
2023-05-22T07:25:19.128Z,43.65
2023-05-22T07:26:18.545Z,43.65
2023-05-22T07:27:22.181Z,43.59
2023-05-22T07:28:18.484Z,43.57
2023-05-22T07:29:18.345Z,43.57
2023-05-22T07:30:18.294Z,43.53
2023-05-22T07:31:18.269Z,43.52
2023-05-22T07:32:18.166Z,43.49
2023-05-22T07:33:18.195Z,43.42
2023-05-22T07:34:18.027Z,43.45
2023-05-22T07:35:17.963Z,43.41
2023-05-22T07:36:17.914Z,43.41
2023-05-22T07:37:17.851Z,43.39
2023-05-22T07:38:17.783Z,43.37
2023-05-22T07:39:17.707Z,43.31
2023-05-22T07:40:17.649Z,43.32
2023-05-22T07:41:17.609Z,43.33
2023-05-22T07:42:17.527Z,43.30
2023-05-22T07:43:17.473Z,43.27
2023-05-22T07:44:17.415Z,43.26
2023-05-22T07:45:17.401Z,43.21
2023-05-22T07:46:17.353Z,43.24
2023-05-22T07:47:17.206Z,43.20
2023-05-22T07:48:17.153Z,43.25
2023-05-22T07:49:17.635Z,43.16
2023-05-22T07:50:17.059Z,43.16
2023-05-22T07:51:16.987Z,43.20
2023-05-22T07:52:16.961Z,43.13
2023-05-22T07:53:16.898Z,43.14
2023-05-22T07:54:16.819Z,43.11
2023-05-22T07:55:16.771Z,43.07
2023-05-22T07:56:16.702Z,43.05
2023-05-22T07:57:16.670Z,43.10
2023-05-22T07:58:16.576Z,43.10
2023-05-22T07:59:16.614Z,43.10
2023-05-22T08:00:16.456Z,43.03
2023-05-22T08:01:16.383Z,43.05
2023-05-22T08:02:16.341Z,43.02
2023-05-22T08:03:17.694Z,43.02
2023-05-22T08:04:16.439Z,43.02
2023-05-22T08:05:16.354Z,43.01
2023-05-22T08:06:16.316Z,42.96
2023-05-22T08:07:16.308Z,42.98
2023-05-22T08:08:16.383Z,42.95
2023-05-22T08:09:16.299Z,42.94
2023-05-22T08:10:16.358Z,42.99
2023-05-22T08:11:16.310Z,42.94
2023-05-22T08:12:16.319Z,42.93
2023-05-22T08:13:16.369Z,42.89
2023-05-22T08:14:16.302Z,42.93
2023-05-22T08:15:16.318Z,42.86
2023-05-22T08:16:16.313Z,42.91
2023-05-22T08:17:16.382Z,42.90
2023-05-22T08:18:16.326Z,42.86
2023-05-22T08:19:16.355Z,42.94
2023-05-22T08:20:16.432Z,42.91
2023-05-22T08:21:16.374Z,42.88
2023-05-22T08:22:16.332Z,42.80
2023-05-22T08:23:16.388Z,42.86
2023-05-22T08:24:16.330Z,42.83
2023-05-22T08:25:16.340Z,42.81
2023-05-22T08:26:16.343Z,42.80
2023-05-22T08:27:16.327Z,42.79
2023-05-22T08:28:16.338Z,42.81
2023-05-22T08:29:16.344Z,42.77
2023-05-22T08:30:17.145Z,42.78
2023-05-22T08:31:16.572Z,42.71
2023-05-22T08:32:16.390Z,42.71
2023-05-22T08:33:16.383Z,42.68
2023-05-22T08:34:16.381Z,42.65
2023-05-22T08:35:16.392Z,42.68
2023-05-22T08:36:16.378Z,42.69
2023-05-22T08:37:16.370Z,42.73
2023-05-22T08:38:16.380Z,42.68
2023-05-22T08:39:16.374Z,42.67
2023-05-22T08:40:16.403Z,42.68
2023-05-22T08:41:16.326Z,42.63
2023-05-22T08:42:16.314Z,42.66
2023-05-22T08:43:16.317Z,42.59
2023-05-22T08:44:16.288Z,42.56
2023-05-22T08:45:16.269Z,42.59
2023-05-22T08:46:16.337Z,42.58
2023-05-22T08:47:16.378Z,42.52
2023-05-22T08:48:16.253Z,42.55
2023-05-22T08:49:16.249Z,42.50
2023-05-22T08:50:16.264Z,42.50
2023-05-22T08:51:17.065Z,42.56
2023-05-22T08:52:16.249Z,42.48
2023-05-22T08:53:16.262Z,42.51
2023-05-22T08:54:16.240Z,42.47
2023-05-22T08:55:16.331Z,42.46
2023-05-22T08:56:16.226Z,42.43
2023-05-22T08:57:16.237Z,42.42
2023-05-22T08:58:16.224Z,42.41
2023-05-22T08:59:16.219Z,42.45
2023-05-22T09:00:16.233Z,42.43
2023-05-22T09:01:16.318Z,42.37
2023-05-22T09:02:16.203Z,42.36
2023-05-22T09:03:16.305Z,42.37
2023-05-22T09:04:16.214Z,42.47
2023-05-22T09:05:16.201Z,42.61
2023-05-22T09:06:16.189Z,42.58
2023-05-22T09:07:16.162Z,42.57
2023-05-22T09:08:20.309Z,42.50
2023-05-22T09:09:17.143Z,42.56
2023-05-22T09:10:16.032Z,42.53
2023-05-22T09:11:15.957Z,42.57
2023-05-22T09:12:15.896Z,42.56
2023-05-22T09:13:15.825Z,42.61
2023-05-22T09:14:15.767Z,42.57
2023-05-22T09:15:15.682Z,42.54
2023-05-22T09:16:15.664Z,42.52
2023-05-22T09:17:15.688Z,42.50
2023-05-22T09:18:15.570Z,42.47
2023-05-22T09:19:15.585Z,42.40
2023-05-22T09:20:15.573Z,42.37
2023-05-22T09:21:28.921Z,42.40
2023-05-22T09:22:16.548Z,42.37
2023-05-22T09:23:16.095Z,42.36
2023-05-22T09:24:15.382Z,42.33
2023-05-22T09:25:15.396Z,42.37
2023-05-22T09:26:15.275Z,42.31
2023-05-22T09:27:15.201Z,42.32
2023-05-22T09:28:15.200Z,42.29
2023-05-22T09:29:15.077Z,42.32
2023-05-22T09:30:15.005Z,42.28
2023-05-22T09:31:14.980Z,42.28
2023-05-22T09:32:14.951Z,42.25
2023-05-22T09:33:14.955Z,42.24
2023-05-22T09:34:14.945Z,42.21
2023-05-22T09:35:15.010Z,42.21
2023-05-22T09:36:14.960Z,42.21
2023-05-22T09:37:14.988Z,42.25
2023-05-22T09:38:14.968Z,42.20
2023-05-22T09:39:15.022Z,42.16
2023-05-22T09:40:14.966Z,42.12
2023-05-22T09:41:14.972Z,42.16
2023-05-22T09:42:15.040Z,42.11
2023-05-22T09:43:15.045Z,42.14
2023-05-22T09:44:15.050Z,42.08
2023-05-22T09:45:14.991Z,42.02
2023-05-22T09:46:15.021Z,42.08
2023-05-22T09:47:15.009Z,42.06
2023-05-22T09:48:15.088Z,41.99
2023-05-22T09:49:16.458Z,42.01
2023-05-22T09:50:15.004Z,41.97
2023-05-22T09:51:15.094Z,42.01
2023-05-22T09:52:15.026Z,41.97
2023-05-22T09:53:15.011Z,41.97
2023-05-22T09:54:15.011Z,41.94
2023-05-22T09:55:15.089Z,41.92
2023-05-22T09:56:19.249Z,41.88
2023-05-22T09:57:15.987Z,41.88
2023-05-22T09:58:15.906Z,41.85
2023-05-22T09:59:14.847Z,41.86
2023-05-22T10:00:14.774Z,41.86
2023-05-22T10:01:14.736Z,41.82
2023-05-22T10:02:14.764Z,41.86
2023-05-22T10:03:14.599Z,41.81
2023-05-22T10:04:14.621Z,41.81
2023-05-22T10:05:14.462Z,41.78
2023-05-22T10:06:14.404Z,41.80
2023-05-22T10:07:14.342Z,41.74
2023-05-22T10:08:14.278Z,41.76
2023-05-22T10:09:14.211Z,41.75
2023-05-22T10:10:14.140Z,41.77
2023-05-22T10:11:14.075Z,41.72
2023-05-22T10:12:14.019Z,41.73
2023-05-22T10:13:13.973Z,41.71
2023-05-22T10:14:13.892Z,41.70
2023-05-22T10:15:13.825Z,41.72
2023-05-22T10:16:13.811Z,41.68
2023-05-22T10:17:13.707Z,41.65
2023-05-22T10:18:13.641Z,41.66
2023-05-22T10:19:13.674Z,41.60
2023-05-22T10:20:13.492Z,41.56
2023-05-22T10:21:13.445Z,41.60
2023-05-22T10:22:13.432Z,41.61
2023-05-22T10:23:13.568Z,41.56
2023-05-22T10:24:13.445Z,41.55
2023-05-22T10:25:13.460Z,41.54
2023-05-22T10:26:13.433Z,41.54
2023-05-22T10:27:13.443Z,41.51
2023-05-22T10:28:13.456Z,41.54
2023-05-22T10:29:13.463Z,41.49
2023-05-22T10:30:13.456Z,41.50
2023-05-22T10:31:13.463Z,41.54
2023-05-22T10:32:13.471Z,41.54
2023-05-22T10:33:13.465Z,41.48
2023-05-22T10:34:13.475Z,41.46
2023-05-22T10:35:13.517Z,41.44
2023-05-22T10:36:14.204Z,41.49
2023-05-22T10:37:18.606Z,41.45
2023-05-22T10:38:14.303Z,41.42
2023-05-22T10:39:14.281Z,41.38
2023-05-22T10:40:13.196Z,41.44
2023-05-22T10:41:13.141Z,41.42
2023-05-22T10:42:13.090Z,41.42
2023-05-22T10:43:13.197Z,41.38
2023-05-22T10:44:13.048Z,41.38
2023-05-22T10:45:12.917Z,41.40
2023-05-22T10:46:12.890Z,41.34
2023-05-22T10:47:12.841Z,41.38
2023-05-22T10:48:13.222Z,41.35
2023-05-22T10:49:12.824Z,41.35
2023-05-22T10:50:13.786Z,41.35
2023-05-22T10:51:12.831Z,41.31
2023-05-22T10:52:12.826Z,41.30
2023-05-22T10:53:12.832Z,41.33
2023-05-22T10:54:12.839Z,41.26
2023-05-22T10:55:12.917Z,41.28
2023-05-22T10:56:12.833Z,41.28
2023-05-22T10:57:12.832Z,41.26
2023-05-22T10:58:13.778Z,41.28
2023-05-22T10:59:13.828Z,41.24
2023-05-22T11:00:12.639Z,41.17
2023-05-22T11:01:12.576Z,41.26
2023-05-22T11:02:12.538Z,41.23
2023-05-22T11:03:17.889Z,41.23
2023-05-22T11:04:13.486Z,41.24
2023-05-22T11:05:12.366Z,41.19
2023-05-22T11:06:12.300Z,41.13
2023-05-22T11:07:12.243Z,41.15
2023-05-22T11:08:12.180Z,41.19
2023-05-22T11:09:12.107Z,41.09
2023-05-22T11:10:12.053Z,41.11
2023-05-22T11:11:12.077Z,41.08
2023-05-22T11:12:11.922Z,41.08
2023-05-22T11:13:11.863Z,41.07
2023-05-22T11:14:11.862Z,41.06
2023-05-22T11:15:11.856Z,41.01
2023-05-22T11:16:11.854Z,41.02
2023-05-22T11:17:12.014Z,41.03
2023-05-22T11:18:11.924Z,41.07
2023-05-22T11:19:22.739Z,41.03
2023-05-22T11:20:13.026Z,41.00
2023-05-22T11:21:11.741Z,41.00
2023-05-22T11:22:11.681Z,40.98
2023-05-22T11:23:11.633Z,40.99
2023-05-22T11:24:11.553Z,40.92
2023-05-22T11:25:11.511Z,40.97
2023-05-22T11:26:11.442Z,40.96
2023-05-22T11:27:11.358Z,40.97
2023-05-22T11:28:11.302Z,40.93
2023-05-22T11:29:11.265Z,40.91
2023-05-22T11:30:11.249Z,40.90
2023-05-22T11:31:11.290Z,40.93
2023-05-22T11:32:11.244Z,40.90
2023-05-22T11:33:11.284Z,40.88
2023-05-22T11:34:11.226Z,40.86
2023-05-22T11:35:11.237Z,40.84
2023-05-22T11:36:11.237Z,40.84
2023-05-22T11:37:11.227Z,40.84
2023-05-22T11:38:11.228Z,40.86
2023-05-22T11:39:11.217Z,40.79
2023-05-22T11:40:11.210Z,40.82
2023-05-22T11:41:11.206Z,40.81
2023-05-22T11:42:11.206Z,40.78
2023-05-22T11:43:11.299Z,40.75
2023-05-22T11:44:11.206Z,40.77
2023-05-22T11:45:11.265Z,40.76
2023-05-22T11:46:11.227Z,40.72
2023-05-22T11:47:11.726Z,40.72
2023-05-22T11:48:12.763Z,40.72
2023-05-22T11:49:11.109Z,40.71
2023-05-22T11:50:11.073Z,40.75
2023-05-22T11:51:11.009Z,40.71
2023-05-22T11:52:10.939Z,40.72
2023-05-22T11:53:10.994Z,40.66
2023-05-22T11:54:10.823Z,40.67
2023-05-22T11:55:10.795Z,40.67
2023-05-22T11:56:10.704Z,40.62
2023-05-22T11:57:10.665Z,40.59
2023-05-22T11:58:10.581Z,40.61
2023-05-22T11:59:10.612Z,40.60
2023-05-22T12:00:10.501Z,40.61
2023-05-22T12:01:10.414Z,40.61
2023-05-22T12:02:10.354Z,40.62
2023-05-22T12:03:10.378Z,40.57
2023-05-22T12:04:10.230Z,40.52
2023-05-22T12:05:10.178Z,40.55
2023-05-22T12:06:10.111Z,40.52
2023-05-22T12:07:10.116Z,40.56
2023-05-22T12:08:10.113Z,40.56
2023-05-22T12:09:09.932Z,40.58
2023-05-22T12:10:09.931Z,40.47
2023-05-22T12:11:09.801Z,40.57
2023-05-22T12:12:09.796Z,40.53
2023-05-22T12:13:09.681Z,40.46
2023-05-22T12:14:09.613Z,40.49
2023-05-22T12:15:09.626Z,40.52
2023-05-22T12:16:09.523Z,40.47
2023-05-22T12:17:09.424Z,40.49
2023-05-22T12:18:09.396Z,40.49
2023-05-22T12:19:09.470Z,40.50
2023-05-22T12:20:09.233Z,40.45
2023-05-22T12:21:09.190Z,40.44
2023-05-22T12:22:09.189Z,40.43
2023-05-22T12:23:09.126Z,40.42
2023-05-22T12:24:08.991Z,40.43
2023-05-22T12:25:08.932Z,40.41
2023-05-22T12:26:08.853Z,40.42
2023-05-22T12:27:08.814Z,40.41
2023-05-22T12:28:08.743Z,40.42
2023-05-22T12:29:08.676Z,40.33
2023-05-22T12:30:08.606Z,40.38
2023-05-22T12:31:08.640Z,40.33
2023-05-22T12:32:08.525Z,40.36
2023-05-22T12:33:08.446Z,40.30
2023-05-22T12:34:08.344Z,40.30
2023-05-22T12:35:08.282Z,40.24
2023-05-22T12:36:08.244Z,40.28
2023-05-22T12:37:08.234Z,40.25
2023-05-22T12:38:08.225Z,40.28
2023-05-22T12:39:08.189Z,40.26
2023-05-22T12:40:08.174Z,40.21
2023-05-22T12:41:08.150Z,40.21
2023-05-22T12:42:08.141Z,40.17
2023-05-22T12:43:08.123Z,40.17
2023-05-22T12:44:08.108Z,40.18
2023-05-22T12:45:08.073Z,40.17
2023-05-22T12:46:08.104Z,40.19
2023-05-22T12:47:08.133Z,40.25
2023-05-22T12:48:08.096Z,40.19
2023-05-22T12:49:07.998Z,40.23
2023-05-22T12:50:08.001Z,40.24
2023-05-22T12:51:07.962Z,40.19
2023-05-22T12:52:07.945Z,40.21